createdAt,value
2018-07-30T00:03:22.598Z,97.00
2018-07-30T00:08:17.048Z,97.20
2018-07-30T00:13:11.569Z,97.40
2018-07-30T00:18:06.389Z,97.50
2018-07-30T00:23:00.857Z,97.80
2018-07-30T00:27:55.357Z,97.90
2018-07-30T00:32:49.852Z,97.80
2018-07-30T00:37:44.325Z,98.00
2018-07-30T00:42:38.760Z,98.50
2018-07-30T00:47:33.205Z,99.10
2018-07-30T00:52:27.625Z,99.00
2018-07-30T00:57:22.065Z,99.50
2018-07-30T01:02:16.553Z,99.60
2018-07-30T01:07:11.058Z,99.80
2018-07-30T01:12:05.519Z,99.80
2018-07-30T01:17:00.010Z,99.80
2018-07-30T01:26:48.673Z,99.90
2018-07-30T01:31:43.146Z,99.90
2018-07-30T01:36:37.608Z,99.90
2018-07-30T01:41:32.100Z,99.90
2018-07-30T01:46:26.583Z,99.90
2018-07-30T01:51:21.035Z,99.90
2018-07-30T01:56:15.449Z,99.90
2018-07-30T02:01:09.918Z,99.90
2018-07-30T02:06:04.408Z,99.90
2018-07-30T02:10:58.973Z,99.90
2018-07-30T02:15:53.440Z,99.90
2018-07-30T02:20:47.883Z,99.90
2018-07-30T02:25:42.368Z,99.90
2018-07-30T02:30:36.796Z,99.90
2018-07-30T02:35:31.262Z,99.90
2018-07-30T02:45:19.864Z,99.90
2018-07-30T02:50:14.347Z,99.90
2018-07-30T02:55:08.810Z,99.90
2018-07-30T03:00:03.281Z,99.90
2018-07-30T03:04:57.730Z,99.90
2018-07-30T03:09:52.261Z,99.90
2018-07-30T03:14:46.720Z,99.90
2018-07-30T03:19:41.202Z,99.90
2018-07-30T03:24:35.679Z,99.90
2018-07-30T03:29:30.137Z,99.90
2018-07-30T03:34:24.602Z,99.90
2018-07-30T03:39:19.058Z,99.90
2018-07-30T03:44:13.586Z,99.90
2018-07-30T03:49:08.029Z,99.90
2018-07-30T03:54:02.482Z,99.90
2018-07-30T03:58:56.960Z,99.90
2018-07-30T04:03:51.501Z,99.90
2018-07-30T04:08:45.984Z,99.90
2018-07-30T04:13:40.435Z,99.90
2018-07-30T04:18:34.883Z,99.90
2018-07-30T04:23:29.353Z,99.90
2018-07-30T04:28:23.797Z,99.90
2018-07-30T04:33:18.245Z,99.90
2018-07-30T04:38:12.699Z,99.90
2018-07-30T04:43:07.126Z,98.30
2018-07-30T04:48:01.556Z,96.40
2018-07-30T04:52:56.170Z,93.70
2018-07-30T04:57:51.438Z,92.60
2018-07-30T05:02:45.897Z,91.80
2018-07-30T05:07:40.356Z,90.80
2018-07-30T05:12:34.817Z,88.90
2018-07-30T05:17:29.299Z,87.60
2018-07-30T05:22:23.833Z,82.50
2018-07-30T05:32:12.565Z,80.50
2018-07-30T05:37:07.150Z,77.50
2018-07-30T05:42:01.663Z,74.10
2018-07-30T05:46:56.194Z,71.70
2018-07-30T05:51:50.876Z,70.60
2018-07-30T05:56:45.482Z,70.30
2018-07-30T06:01:40.093Z,69.20
2018-07-30T06:06:34.612Z,71.00
2018-07-30T06:11:29.229Z,71.20
2018-07-30T06:16:23.772Z,71.00
2018-07-30T06:21:18.401Z,70.00
2018-07-30T06:26:13.144Z,66.90
2018-07-30T06:31:19.258Z,66.80
2018-07-30T06:36:14.667Z,68.50
2018-07-30T06:46:03.399Z,69.30
2018-07-30T06:50:58.005Z,70.20
2018-07-30T06:55:52.748Z,70.20
2018-07-30T07:00:47.516Z,72.30
2018-07-30T07:05:42.117Z,74.50
2018-07-30T07:10:36.697Z,75.40
2018-07-30T07:15:31.339Z,74.60
2018-07-30T07:20:25.908Z,74.20
2018-07-30T07:25:20.596Z,75.30
2018-07-30T07:30:15.746Z,75.70
2018-07-30T07:35:10.446Z,76.60
2018-07-30T07:45:09.276Z,75.50
2018-07-30T07:50:03.975Z,73.90
2018-07-30T07:55:00.183Z,74.40
2018-07-30T07:59:54.765Z,76.00
2018-07-30T08:14:46.700Z,78.50
2018-07-30T08:24:38.705Z,79.50
2018-07-30T08:29:32.377Z,79.80
2018-07-30T08:34:25.526Z,79.60
2018-07-30T08:39:18.706Z,77.30
2018-07-30T08:44:11.839Z,76.00
2018-07-30T08:49:05.536Z,76.50
2018-07-30T08:53:58.670Z,75.80
2018-07-30T08:58:56.056Z,75.20
2018-07-30T09:04:01.027Z,74.30
2018-07-30T09:08:54.948Z,74.20
2018-07-30T09:13:48.383Z,73.70
2018-07-30T09:18:41.967Z,72.90
2018-07-30T09:23:35.112Z,72.20
2018-07-30T09:28:28.220Z,71.90
2018-07-30T09:33:22.041Z,71.70
2018-07-30T09:43:26.714Z,72.00
2018-07-30T09:53:12.978Z,72.80
2018-07-30T10:02:58.999Z,74.20
2018-07-30T10:07:52.248Z,73.80
2018-07-30T10:12:45.298Z,72.80
2018-07-30T10:17:38.550Z,72.80
2018-07-30T10:22:31.565Z,72.10
2018-07-30T10:27:24.698Z,70.10
2018-07-30T10:32:17.769Z,70.70
2018-07-30T10:37:10.928Z,71.60
2018-07-30T10:42:05.435Z,69.00
2018-07-30T10:46:58.558Z,68.20
2018-07-30T10:51:51.692Z,69.10
2018-07-30T10:56:44.706Z,64.40
2018-07-30T11:01:39.137Z,62.30
2018-07-30T11:06:32.260Z,60.10
2018-07-30T11:11:25.413Z,56.20
2018-07-30T11:16:18.792Z,55.30
2018-07-30T11:21:11.891Z,54.60
2018-07-30T11:26:05.095Z,50.30
2018-07-30T11:30:58.238Z,50.60
2018-07-30T11:35:51.337Z,46.30
2018-07-30T11:45:37.630Z,49.10
2018-07-30T11:50:30.692Z,52.70
2018-07-30T11:55:23.874Z,51.10
2018-07-30T12:00:16.933Z,51.30
2018-07-30T12:05:10.486Z,54.20
2018-07-30T12:10:03.993Z,53.60
2018-07-30T12:14:57.563Z,53.70
2018-07-30T12:19:50.900Z,51.30
2018-07-30T12:24:44.070Z,49.10
2018-07-30T12:29:37.189Z,50.00
2018-07-30T12:34:32.090Z,49.80
2018-07-30T12:39:25.263Z,51.40
2018-07-30T12:44:18.484Z,52.90
2018-07-30T12:49:11.680Z,50.70
2018-07-30T12:58:58.236Z,51.20
2018-07-30T13:03:52.682Z,48.70
2018-07-30T13:08:45.780Z,45.50
2018-07-30T13:13:38.891Z,46.80
2018-07-30T13:18:51.191Z,46.90
2018-07-30T13:23:44.310Z,48.70
2018-07-30T13:28:37.427Z,48.00
2018-07-30T13:33:30.569Z,50.50
2018-07-30T13:38:23.665Z,48.40
2018-07-30T13:43:16.686Z,49.10
2018-07-30T13:48:16.926Z,44.40
2018-07-30T13:53:10.116Z,49.00
2018-07-30T13:58:05.738Z,43.10
2018-07-30T14:07:54.321Z,47.60
2018-07-30T14:12:47.736Z,47.40
2018-07-30T14:17:43.180Z,45.60
2018-07-30T14:27:29.489Z,40.40
2018-07-30T14:32:22.766Z,44.60
2018-07-30T14:37:15.904Z,43.30
2018-07-30T14:47:03.334Z,43.10
2018-07-30T14:51:56.469Z,43.50
2018-07-30T14:56:51.083Z,42.20
2018-07-30T15:01:44.131Z,42.10
2018-07-30T15:11:30.100Z,41.70
2018-07-30T15:16:23.520Z,41.10
2018-07-30T15:26:09.577Z,42.10
2018-07-30T15:31:02.720Z,40.90
2018-07-30T15:35:55.771Z,41.10
2018-07-30T15:40:48.931Z,41.40
2018-07-30T15:45:41.999Z,40.90
2018-07-30T15:50:35.005Z,41.10
2018-07-30T15:55:28.037Z,41.50
2018-07-30T16:00:21.105Z,41.30
2018-07-30T16:05:15.757Z,41.40
2018-07-30T16:10:08.796Z,41.20
2018-07-30T16:15:01.956Z,41.00
2018-07-30T16:19:55.028Z,41.40
2018-07-30T16:24:48.162Z,41.80
2018-07-30T16:34:34.201Z,41.90
2018-07-30T16:39:27.316Z,41.60
2018-07-30T16:44:20.390Z,41.60
2018-07-30T16:49:13.424Z,41.40
2018-07-30T16:54:06.463Z,41.50
2018-07-30T16:58:59.544Z,41.80
2018-07-30T17:03:52.570Z,41.80
2018-07-30T17:08:45.608Z,42.10
2018-07-30T17:13:38.657Z,42.20
2018-07-30T17:23:24.635Z,42.70
2018-07-30T17:28:17.706Z,42.80
2018-07-30T17:33:10.720Z,43.10
2018-07-30T17:38:03.877Z,43.10
2018-07-30T17:42:56.915Z,43.80
2018-07-30T17:47:49.912Z,43.60
2018-07-30T17:52:42.999Z,43.30
2018-07-30T17:57:36.037Z,43.70
2018-07-30T18:02:29.046Z,44.20
2018-07-30T18:07:22.041Z,44.80
2018-07-30T18:12:15.135Z,44.50
2018-07-30T18:17:08.168Z,44.80
2018-07-30T18:26:54.172Z,45.40
2018-07-30T18:31:47.599Z,45.90
2018-07-30T18:36:40.597Z,46.50
2018-07-30T18:41:33.662Z,47.10
2018-07-30T18:46:26.700Z,47.70
2018-07-30T18:51:19.691Z,48.50
2018-07-30T18:56:12.720Z,49.00
2018-07-30T19:01:05.824Z,49.40
2018-07-30T19:05:58.836Z,50.50
2018-07-30T19:10:51.869Z,50.90
2018-07-30T19:15:44.949Z,52.10
2018-07-30T19:20:38.000Z,53.40
2018-07-30T19:25:31.048Z,54.80
2018-07-30T19:30:24.084Z,56.00
2018-07-30T19:35:17.176Z,56.70
2018-07-30T19:40:10.246Z,57.70
2018-07-30T19:45:03.787Z,57.80
2018-07-30T19:49:56.783Z,58.90
2018-07-30T19:54:50.142Z,59.60
2018-07-30T19:59:43.160Z,59.70
2018-07-30T20:04:36.236Z,60.80
2018-07-30T20:09:29.264Z,61.60
2018-07-30T20:14:22.272Z,61.50
2018-07-30T20:24:08.260Z,63.80
2018-07-30T20:29:01.299Z,63.90
2018-07-30T20:33:56.281Z,64.50
2018-07-30T20:38:49.308Z,66.90
2018-07-30T20:43:42.297Z,68.00
2018-07-30T20:48:35.350Z,70.80
2018-07-30T20:53:28.376Z,72.30
2018-07-30T20:58:21.421Z,74.00
2018-07-30T21:03:14.461Z,74.00
2018-07-30T21:08:07.578Z,74.20
2018-07-30T21:13:00.644Z,75.70
2018-07-30T21:17:53.664Z,75.60
2018-07-30T21:22:46.684Z,76.40
2018-07-30T21:27:39.699Z,77.50
2018-07-30T21:32:32.716Z,78.30
2018-07-30T21:37:25.833Z,78.70
2018-07-30T21:42:18.892Z,79.10
2018-07-30T21:47:11.949Z,79.90
2018-07-30T21:52:05.128Z,81.40
2018-07-30T21:56:58.137Z,82.20
2018-07-30T22:01:51.260Z,83.70
2018-07-30T22:06:44.284Z,84.20
2018-07-30T22:11:37.411Z,84.60
2018-07-30T22:16:30.425Z,85.20
2018-07-30T22:21:23.447Z,86.00
2018-07-30T22:26:16.455Z,86.20
2018-07-30T22:31:09.487Z,86.90
2018-07-30T22:36:02.476Z,87.70
2018-07-30T22:40:55.477Z,88.50
2018-07-30T22:45:48.547Z,89.10
2018-07-30T22:50:41.662Z,89.80
2018-07-30T22:55:34.665Z,90.30
2018-07-30T23:00:27.697Z,90.40
2018-07-30T23:05:20.780Z,90.80
2018-07-30T23:10:13.764Z,91.10
2018-07-30T23:15:06.836Z,91.10
2018-07-30T23:19:59.904Z,91.20
2018-07-30T23:24:52.997Z,91.60
2018-07-30T23:29:45.996Z,91.80
2018-07-30T23:34:38.979Z,92.00
2018-07-30T23:44:25.035Z,92.60
2018-07-30T23:49:18.028Z,92.90
2018-07-30T23:54:11.099Z,93.00
2018-07-30T23:59:04.262Z,93.30
